Flight Track Log - Related Links

Times and Time Zones

All times are in EDT time to prevent confusion due to time zone crossing. See the FLG4152 flight status page for this flight to view local times or setup timezone preferences in your user account.

Time Position Orientation Groundspeed Altitude Reporting Facility
EDT Latitude Longitude Course Direction KTS MPH feet Rate Location/Type
Mon 08:27:43 PM 39.0333 -84.6667 142° Southeast 169 194 1,400  Level Cincinnati TRACON
Mon 08:28:07 PM 39.0167 -84.6500 142° Southeast 179 206 2,200 1,867 Climbing Cincinnati TRACON
Mon 08:29:13 PM 39.0000 -84.5667 104° East 223 257 4,200 1,605 Climbing Cincinnati TRACON
Mon 08:29:33 PM 38.9956 -84.5439 104° East 252 290 4,500 2,370 Climbing Indianapolis Center
Mon 08:30:34 PM 38.9739 -84.4486 106° East 279 321 7,400 2,537 Climbing Indianapolis Center
Mon 08:31:36 PM 38.9508 -84.3519 107° East 282 325 9,700 1,902 Climbing Indianapolis Center
Mon 08:32:37 PM 38.9253 -84.2442 107° East 308 354 11,300 1,426 Climbing Indianapolis Center
Mon 08:33:38 PM 38.8964 -84.1264 107° East 337 388 12,600 1,268 Climbing Indianapolis Center
Mon 08:34:40 PM 38.8669 -84.0000 107° East 359 413 13,900 1,220 Climbing Indianapolis Center
Mon 08:35:41 PM 38.8383 -83.8642 105° East 380 437 15,100 1,171 Climbing Indianapolis Center
Mon 08:36:43 PM 38.8086 -83.7264 105° East 394 453 16,300 1,268 Climbing Indianapolis Center
Mon 08:37:44 PM 38.7731 -83.5628 106° East 403 464 17,700 1,180 Climbing Indianapolis Center
Mon 08:38:45 PM 38.7642 -83.4161 94° East 409 471 18,700 927 Climbing Indianapolis Center
Mon 08:39:47 PM 38.7642 -83.2667 90° East 416 479 19,600 1,122 Climbing Indianapolis Center
Mon 08:40:48 PM 38.7633 -83.1131 90° East 418 481 21,000 1,415 Climbing Indianapolis Center
Mon 08:41:50 PM 38.7644 -82.9711 89° East 404 465 22,500 1,317 Climbing Indianapolis Center
Mon 08:42:51 PM 38.7425 -82.8358 102° East 397 457 23,700 984 Climbing Indianapolis Center
Mon 08:43:52 PM 38.6964 -82.7094 115° Southeast 392 451 24,500 634 Climbing Indianapolis Center
Mon 08:44:54 PM 38.6492 -82.5794 115° Southeast 400 460 25,000 244 Climbing Indianapolis Center
Mon 08:45:55 PM 38.5992 -82.4436 115° Southeast 421 484 25,000  Level Indianapolis Center
Mon 08:46:57 PM 38.5467 -82.3011 115° Southeast 441 507 25,000  Level Indianapolis Center
Mon 08:47:58 PM 38.4917 -82.1542 116° Southeast 456 525 25,000  Level Indianapolis Center
Mon 08:48:59 PM 38.4267 -81.9772 115° Southeast 462 532 25,000  Level Indianapolis Center
Mon 08:50:01 PM 38.3717 -81.8289 115° Southeast 466 536 25,000  Level Indianapolis Center
Mon 08:51:02 PM 38.3347 -81.6711 107° East 474 545 25,000  Level Indianapolis Center
Mon 08:52:04 PM 38.3075 -81.5044 102° East 485 558 25,000  Level Indianapolis Center
Mon 08:53:05 PM 38.2803 -81.3369 102° East 489 563 25,000  Level Indianapolis Center
Mon 08:54:07 PM 38.2531 -81.1667 101° East 492 566 25,000  Level Indianapolis Center
Mon 08:55:08 PM 38.2200 -80.9636 102° East 493 567 25,000  Level Indianapolis Center
Mon 08:56:10 PM 38.1914 -80.7939 102° East 494 568 25,000  Level Indianapolis Center
Mon 08:57:11 PM 38.1650 -80.6217 101° East 497 572 25,000 -117 Level Indianapolis Center
Mon 08:57:53 PM 38.1469 -80.5242 103° East 488 562 24,800 -475 Descending Washington Center
Mon 08:58:52 PM 38.1131 -80.3319 103° East 494 568 24,200 -550 Descending Washington Center
Mon 08:59:53 PM 38.0864 -80.1561 101° East 494 568 23,700 -492 Descending Washington Center
Mon 09:00:54 PM 38.0575 -79.9828 102° East 494 568 23,200 -492 Descending Washington Center
Mon 09:01:55 PM 38.0281 -79.8150 103° East 489 563 22,700 -458 Descending Washington Center
Mon 09:02:52 PM 38.0000 -79.6578 103° East 489 563 22,300 -462 Descending Washington Center
Mon 09:03:52 PM 37.9703 -79.4878 102° East 489 563 21,800 -496 Descending Washington Center
Mon 09:04:53 PM 37.9400 -79.3228 103° East 489 563 21,300 -400 Descending Washington Center
Mon 09:05:52 PM 37.9117 -79.1556 102° East 489 563 21,000 -403 Descending Washington Center
Mon 09:06:52 PM 37.8744 -79.0011 107° East 472 543 20,500 -496 Descending Washington Center
Mon 09:07:53 PM 37.8306 -78.8572 111° Southeast 455 524 20,000 -541 Descending Washington Center
Mon 09:08:54 PM 37.7850 -78.6925 109° East 441 507 19,400 -545 Descending Washington Center
Mon 09:09:54 PM 37.7408 -78.5436 111° Southeast 447 514 18,900 -814 Descending Washington Center
Mon 09:10:52 PM 37.6964 -78.3922 110° East 457 526 17,800 -3,050 Descending Washington Center
Mon 09:11:54 PM 37.6558 -78.2517 110° East 452 520 12,800 -3,885 Descending Washington Center
Mon 09:12:54 PM 37.6167 -78.1297 112° Southeast 415 478 9,900 -1,983 Descending Washington Center
Mon 09:13:52 PM 37.5914 -78.0372 109° East 325 374 8,900 -1,664 Descending Washington Center
Mon 09:14:53 PM 37.5769 -77.9344 100° East 301 346 6,600 -1,967 Descending Washington Center
Mon 09:15:54 PM 37.5661 -77.8372 98° East 290 334 4,900 -1,426 Descending Washington Center
Mon 09:16:55 PM 37.5553 -77.7425 98° East 279 321 3,700 -958 Descending Washington Center
Mon 09:17:53 PM 37.5486 -77.6481 95° East 274 315 3,000 -724 Descending Washington Center

Login

Don't have an account? Register now (free) for customized features, flight alerts, and more!